Paradise Valley, Pennsylvania
Current Conditions -  °F | °C
As of 7:13 AM on Friday 28 Nov 2014 (Local Time) from KMPO Reporting Station
Light Snow Light Snow  
Wind Chill: 14°   Ceiling: 2700
Heat Index: 24°   Visibility: 1.2mi
Dew Point: 20°   Wind: 9mph
Humidity: 84%   Direction: 320°NW
Pressure: 30.06"   Gusts: NA
Location:  41.1664°N, 75.2521°W
Report Text: KMPO 281213Z AUTO 32008KT 1 1/4SM -SN BR FEW011 SCT016 OVC027 M04/M07 A3006 RMK AO2 P0000 T10441067
Loading
Personal Weather Stations






























Interactive Weather Map New forecast layout! Learn more

10-Day Weather Forecast

Advertisements
Track Severe Weather on mobile